Terminal Aerodrome Forecast
Issued by NWS

Home | Current Version | Previous Version | Graphics & Text | Print | Product List | Glossary On
Versions: 1 2 3 4 5 6 7 8 9 10 11 12 13 14 15 16 17 18 19 20 21 22 23 24 25 26 27 28 29
376
FTUS43 KGRB 260520
TAFRHI
TAF
KRHI 260520Z 2606/2706 27003KT P6SM SCT050
     FM260800 26003KT P6SM SCT025 SCT050
      TEMPO 2609/2613 4SM BR BKN020
     FM261500 27007KT P6SM BKN040
     FM270100 VRB02KT P6SM SCT035 BKN200
      TEMPO 2704/2706 3SM BR=

USA.gov is the U.S. government's official web portal to all federal, state and local government web resources and services.